RKA6 weather

Public forecast

Using degrees Celsius for public forecast. Weather courtesy of forecast.io.

Closest aviation weather report (METAR) to N-304 Helipad

Closest report is Jeju International Airport, 50.8 nm (94.1 km) SW. Retrieved 2020/08/13 02:00 UTC (37 minutes ago):

RKPC 130200Z 22015KT 190V250 9999 FEW020 SCT150 33/25 Q1012 NOSIG

Closest aviation forecast (TAF) to N-304 Helipad

Closest forecast is Jeju International Airport, 50.8 nm (94.1 km) SW. Retrieved 2020-08-13 00:00 UTC (3 hours ago):

TAF RKPC 122300Z 1300/1406 22015G25KT CAVOK TX34/1305Z TN27/1321Z TX34/1405Z BECMG 1309/1310 21008KT BECMG 1323/1324 22015G25KT